Flight Track Log - Related Links

Times and Time Zones

All times are in EDT time to prevent confusion due to time zone crossing. See the EJA929 flight status page for this flight to view local times or setup timezone preferences in your user account.

Time Position Orientation Groundspeed Altitude Reporting Facility
EDT Latitude Longitude Course Direction KTS MPH feet Rate Location/Type
Sat 04:05:10 PM 39.8833 -75.2167 66° East 179 206 600  Level Philadelphia TRACON
Sat 04:06:35 PM 39.9167 -75.1167 66° East 256 295 3,900 2,814 Climbing Philadelphia TRACON
Sat 04:07:35 PM 40.0000 -75.1167 360° North 291 335 7,400 1,785 Climbing Philadelphia TRACON
Sat 04:10:00 PM 39.9619 -75.3533 258° West 329 379 10,000 761 Climbing New York Center
Sat 04:11:00 PM 39.9278 -75.4808 251° West 363 418 10,000 400 Level New York Center
Sat 04:12:00 PM 39.8892 -75.6083 248° West 381 438 10,800 1,300 Climbing New York Center
Sat 04:13:00 PM 39.8339 -75.7342 240° Southwest 370 426 12,600 2,250 Climbing New York Center
Sat 04:14:00 PM 39.7775 -75.8328 233° Southwest 381 438 15,300 2,250 Climbing New York Center
Sat 04:15:00 PM 39.7189 -75.9394 234° Southwest 376 433 17,100 1,700 Climbing New York Center
Sat 04:16:00 PM 39.6556 -76.0481 233° Southwest 371 427 18,700 1,565 Climbing New York Center
Sat 04:18:27 PM 39.5008 -76.3203 234° Southwest 378 435 22,500 1,507 Climbing Washington Center
Sat 04:19:27 PM 39.4378 -76.4272 233° Southwest 378 435 23,900 763 Climbing Washington Center
Sat 04:20:25 PM 39.3703 -76.5311 230° Southwest 378 435 24,000 50 Climbing Washington Center
Sat 04:21:27 PM 39.3028 -76.6431 232° Southwest 397 457 24,000  Level Washington Center
Sat 04:22:25 PM 39.2372 -76.7439 230° Southwest 402 463 24,000  Level Washington Center
Sat 04:23:25 PM 39.1631 -76.8578 230° Southwest 409 471 24,000  Level Washington Center
Sat 04:24:26 PM 39.0889 -76.9717 230° Southwest 414 476 24,000  Level Washington Center
Sat 04:25:27 PM 39.0083 -77.0822 239° Southwest 425 489 24,000  Level Washington Center
Sat 04:26:28 PM 38.9175 -77.1817 220° Southwest 425 489 24,000  Level Washington Center
Sat 04:27:25 PM 38.8264 -77.2783 220° Southwest 425 489 24,000  Level Washington Center
Sat 04:28:26 PM 38.7356 -77.3775 220° Southwest 430 495 24,000  Level Washington Center
Sat 04:29:25 PM 38.6464 -77.4764 221° Southwest 435 501 24,000  Level Washington Center
Sat 04:30:25 PM 38.5531 -77.5747 219° Southwest 440 506 24,000  Level Washington Center
Sat 04:31:26 PM 38.4639 -77.6731 221° Southwest 434 499 24,000  Level Washington Center
Sat 04:32:26 PM 38.3767 -77.7661 220° Southwest 434 499 24,000  Level Washington Center
Sat 04:33:28 PM 38.2894 -77.8589 220° Southwest 424 488 24,000  Level Washington Center
Sat 04:34:25 PM 38.2042 -77.9514 220° Southwest 414 476 24,000  Level Washington Center
Sat 04:35:26 PM 38.1125 -78.0514 221° Southwest 409 471 24,000  Level Washington Center
Sat 04:36:27 PM 38.0272 -78.1408 220° Southwest 409 471 24,000  Level Washington Center
Sat 04:37:25 PM 37.9442 -78.2250 219° Southwest 404 465 24,000  Level Washington Center
Sat 04:38:25 PM 37.8567 -78.3086 217° Southwest 404 465 24,000  Level Washington Center
Sat 04:39:26 PM 37.7694 -78.3897 216° Southwest 404 465 24,000  Level Washington Center
Sat 04:40:27 PM 37.6906 -78.4656 217° Southwest 399 459 24,000  Level Washington Center
Sat 04:41:25 PM 37.6031 -78.5461 216° Southwest 399 459 24,000  Level Washington Center
Sat 04:42:25 PM 37.5153 -78.6292 217° Southwest 399 459 24,000  Level Washington Center
Sat 04:43:26 PM 37.4256 -78.7117 216° Southwest 399 459 24,000  Level Washington Center
Sat 04:44:27 PM 37.3381 -78.7917 216° Southwest 399 459 24,000  Level Washington Center
Sat 04:45:27 PM 37.2417 -78.8842 217° Southwest 399 459 24,000  Level Washington Center
Sat 04:46:24 PM 37.1539 -78.9664 217° Southwest 399 459 24,000  Level Washington Center
Sat 04:47:25 PM 37.0639 -79.0458 215° Southwest 399 459 24,000  Level Washington Center
Sat 04:48:26 PM 36.9761 -79.1250 216° Southwest 399 459 24,000  Level Washington Center
Sat 04:49:27 PM 36.8881 -79.2094 217° Southwest 399 459 24,000  Level Washington Center
Sat 04:50:25 PM 36.8086 -79.2808 216° Southwest 399 459 24,000  Level Washington Center
Sat 04:51:25 PM 36.7225 -79.3622 217° Southwest 399 459 24,000  Level Washington Center
Sat 04:52:25 PM 36.6344 -79.4433 216° Southwest 399 459 24,000  Level Washington Center
Sat 04:53:26 PM 36.5464 -79.5219 216° Southwest 399 459 24,000  Level Washington Center
Sat 04:54:27 PM 36.4517 -79.6100 217° Southwest 399 459 24,000  Level Washington Center
Sat 04:55:25 PM 36.3656 -79.6908 217° Southwest 399 459 24,000  Level Washington Center
Sat 04:57:45 PM 36.1564 -79.8728 215° Southwest 392 451 24,000  Level Atlanta Center
Sat 04:58:45 PM 36.0694 -79.9517 216° Southwest 392 451 24,000  Level Atlanta Center
Sat 04:59:45 PM 35.9694 -80.0133 207° Southwest 392 451 24,000  Level Atlanta Center
Sat 05:00:45 PM 35.8789 -80.0561 201° Southwest 398 458 24,000  Level Atlanta Center
Sat 05:01:45 PM 35.7764 -80.1097 203° Southwest 398 458 24,000  Level Atlanta Center
Sat 05:02:45 PM 35.6636 -80.1689 203° Southwest 403 464 24,000  Level Atlanta Center
Sat 05:03:45 PM 35.5608 -80.2172 201° Southwest 403 464 24,000  Level Atlanta Center
Sat 05:04:45 PM 35.4581 -80.2703 203° Southwest 410 472 24,000  Level Atlanta Center
Sat 05:05:45 PM 35.3656 -80.3178 203° Southwest 410 472 24,000  Level Atlanta Center
Sat 05:06:45 PM 35.2650 -80.3708 203° Southwest 405 466 24,000  Level Atlanta Center
Sat 05:07:45 PM 35.1600 -80.4236 202° Southwest 405 466 24,000  Level Atlanta Center
Sat 05:09:28 PM 34.9697 -80.5139 201° Southwest 410 472 24,000  Level Jacksonville Center
Sat 05:10:28 PM 34.8767 -80.5619 203° Southwest 410 472 24,000  Level Jacksonville Center
Sat 05:11:28 PM 34.7650 -80.6156 202° Southwest 405 466 24,000  Level Jacksonville Center
Sat 05:12:28 PM 34.6639 -80.6686 203° Southwest 405 466 24,000  Level Jacksonville Center
Sat 05:13:28 PM 34.5603 -80.7169 201° Southwest 419 482 24,000  Level Jacksonville Center
Sat 05:14:28 PM 34.4589 -80.7672 202° Southwest 414 476 24,000  Level Jacksonville Center
Sat 05:15:28 PM 34.3431 -80.8253 202° Southwest 408 470 24,000 400 Level Jacksonville Center
Sat 05:16:28 PM 34.2439 -80.8731 202° Southwest 402 463 24,800 500 Climbing Jacksonville Center
Sat 05:17:28 PM 34.1339 -80.9231 201° Southwest 408 470 25,000 100 Climbing Jacksonville Center
Sat 05:18:28 PM 34.0242 -80.9758 202° Southwest 415 478 25,000  Level Jacksonville Center
Sat 05:19:28 PM 33.9167 -81.0281 202° Southwest 420 483 25,000  Level Jacksonville Center
Sat 05:20:28 PM 33.8089 -81.0803 202° Southwest 420 483 25,000  Level Jacksonville Center
Sat 05:21:28 PM 33.7031 -81.1325 202° Southwest 420 483 25,000  Level Jacksonville Center
Sat 05:22:28 PM 33.5933 -81.1844 202° Southwest 420 483 25,000  Level Jacksonville Center
Sat 05:23:28 PM 33.4897 -81.2389 204° Southwest 420 483 25,000  Level Jacksonville Center
Sat 05:24:28 PM 33.3797 -81.2931 202° Southwest 420 483 25,000  Level Jacksonville Center
Sat 05:25:28 PM 33.2675 -81.3450 201° Southwest 420 483 25,000  Level Jacksonville Center
Sat 05:26:28 PM 33.1514 -81.4014 202° Southwest 431 496 25,000  Level Jacksonville Center
Sat 05:27:28 PM 33.0353 -81.4603 203° Southwest 451 519 25,000  Level Jacksonville Center
Sat 05:28:28 PM 32.9169 -81.5192 203° Southwest 451 519 25,000  Level Jacksonville Center
Sat 05:29:28 PM 32.7983 -81.5728 201° Southwest 456 525 25,000  Level Jacksonville Center
Sat 05:30:28 PM 32.6822 -81.6314 203° Southwest 456 525 25,000  Level Jacksonville Center
Sat 05:31:28 PM 32.5636 -81.6872 202° Southwest 456 525 25,000  Level Jacksonville Center
Sat 05:32:28 PM 32.4514 -81.7281 197° South 469 540 25,000  Level Jacksonville Center
Sat 05:33:28 PM 32.3139 -81.7594 191° South 464 534 25,000  Level Jacksonville Center
Sat 05:34:28 PM 32.1847 -81.7881 191° South 469 540 25,000  Level Jacksonville Center
Sat 05:35:28 PM 32.0575 -81.8189 192° South 469 540 25,000  Level Jacksonville Center
Sat 05:36:28 PM 31.9431 -81.8447 191° South 469 540 25,000  Level Jacksonville Center
Sat 05:37:28 PM 31.8014 -81.8756 190° South 469 540 25,000  Level Jacksonville Center
Sat 05:38:28 PM 31.6742 -81.9014 190° South 469 540 25,000  Level Jacksonville Center
Sat 05:39:28 PM 31.5469 -81.9319 192° South 469 540 25,000  Level Jacksonville Center
Sat 05:40:28 PM 31.4303 -81.9575 191° South 469 540 25,000  Level Jacksonville Center
Sat 05:41:28 PM 31.2906 -81.9881 191° South 470 541 25,000  Level Jacksonville Center
Sat 05:42:28 PM 31.1633 -82.0186 192° South 470 541 25,000  Level Jacksonville Center
Sat 05:43:28 PM 31.0319 -82.0464 190° South 470 541 25,000  Level Jacksonville Center
Sat 05:44:28 PM 30.9050 -82.0742 191° South 470 541 25,000  Level Jacksonville Center
Sat 05:45:28 PM 30.7756 -82.1019 190° South 470 541 25,000  Level Jacksonville Center
Sat 05:46:28 PM 30.6506 -82.1319 192° South 470 541 25,000  Level Jacksonville Center
Sat 05:47:28 PM 30.5233 -82.1569 190° South 465 535 25,000  Level Jacksonville Center
Sat 05:48:28 PM 30.3939 -82.1822 190° South 465 535 25,000  Level Jacksonville Center
Sat 05:49:28 PM 30.2647 -82.2094 190° South 471 542 25,000  Level Jacksonville Center
Sat 05:50:28 PM 30.1375 -82.2392 191° South 471 542 25,000  Level Jacksonville Center
Sat 05:51:28 PM 30.0186 -82.2689 192° South 471 542 25,000  Level Jacksonville Center
Sat 05:52:28 PM 29.8914 -82.2961 191° South 471 542 25,000  Level Jacksonville Center
Sat 05:53:28 PM 29.7642 -82.3231 190° South 471 542 25,000  Level Jacksonville Center
Sat 05:54:28 PM 29.6244 -82.3503 190° South 471 542 25,000  Level Jacksonville Center
Sat 05:55:28 PM 29.4908 -82.3486 179° South 471 542 25,000 -900 Level Jacksonville Center
Sat 05:56:28 PM 29.3572 -82.3325 174° South 466 536 23,200 -2,400 Descending Jacksonville Center
Sat 05:57:28 PM 29.2233 -82.3144 173° South 481 554 20,200 -3,050 Descending Jacksonville Center
Sat 05:58:28 PM 29.1022 -82.3008 174° South 474 545 17,100 -2,800 Descending Jacksonville Center
Sat 05:59:28 PM 28.9833 -82.2872 174° South 454 522 14,600 -2,050 Descending Jacksonville Center
Sat 06:00:28 PM 28.8725 -82.2736 174° South 431 496 13,000 -800 Descending Jacksonville Center
Sat 06:01:28 PM 28.7869 -82.2625 174° South 383 441 13,000 -316 Level Jacksonville Center
Sat 06:03:38 PM 28.6000 -82.2500 177° South 303 349 12,000 -698 Descending Tampa TRACON
Sat 06:04:20 PM 28.5500 -82.2667 196° South 301 346 11,000 -1,053 Descending Tampa TRACON
Sat 06:05:32 PM 28.5000 -82.3500 236° Southwest 281 323 10,000 -455 Descending Tampa TRACON
Sat 06:06:32 PM 28.4667 -82.4333 246° West 282 325 10,000  Level Tampa TRACON
Sat 06:07:32 PM 28.4333 -82.5167 246° West 280 322 10,000 -667 Level Tampa TRACON
Sat 06:08:38 PM 28.4000 -82.6000 246° West 282 325 8,600 -1,476 Descending Tampa TRACON
Sat 06:09:38 PM 28.3500 -82.6833 236° Southwest 285 328 6,900 -1,321 Descending Tampa TRACON
Sat 06:10:27 PM 28.3000 -82.7000 196° South 290 334 6,200 -524 Descending Tampa TRACON
Sat 06:11:21 PM 28.2333 -82.7333 204° Southwest 276 318 6,000 -316 Descending Tampa TRACON
Sat 06:12:21 PM 28.1667 -82.7500 192° South 269 310 5,600 -1,000 Descending Tampa TRACON
Sat 06:13:21 PM 28.1000 -82.7333 168° South 242 278 4,000 -1,476 Descending Tampa TRACON
Sat 06:14:27 PM 28.0333 -82.7167 168° South 195 224 2,500 -1,273 Descending Tampa TRACON
Sat 06:15:33 PM 27.9833 -82.7000 164° South 158 182 1,200 -950 Descending Tampa TRACON
Sat 06:16:27 PM 27.9500 -82.7000 180° South 124 143 600 -667 Descending Tampa TRACON
Sat 06:18:00 PM 27.9100 -82.6875 165° South  Level Estimated
Sat 06:25:00 PM 27.9100 -82.6875 260° West  Level Estimated
Sat 06:26:00 PM 27.9100 -82.6875 260° West  Level Estimated

Login

Don't have an account? Register now (free) for customized features, flight alerts, and more!